Surface observations / UK / EGOM

Quebec | Canada | USA | France | UK | Europe | Elsewhere

Display: Info & Location for EGOM | Help decoding METAR


Raw surface observations for station EGOM
EGOM 310650Z AUTO 03014KT 9999 OVC009/// 09/08 Q1022=
EGOM 310550Z AUTO 01014KT 9999 OVC009/// 09/07 Q1022=
EGOM 310450Z AUTO 02008KT 9999 OVC008/// 09/07 Q1022=
EGOM 310350Z AUTO 03008KT 9999 OVC008/// 09/07 Q1022=
EGOM 310250Z AUTO 03009KT 9999 BKN009/// 08/07 Q1022=
EGOM 310150Z AUTO 02012KT 9999 FEW010/// 08/07 Q1022=
EGOM 310050Z AUTO 01015KT 9999 NCD 09/07 Q1022=
EGOM 302350Z AUTO 01015KT 9999 FEW011/// 09/08 Q1022=
EGOM 302250Z AUTO 01009KT 9999 BKN010/// 09/08 Q1022=
EGOM 302150Z AUTO 03010KT 9999 NCD 09/08 Q1022=
EGOM 302050Z AUTO 03008KT 9999 NCD 10/07 Q1022=
EGOM 301950Z AUTO 03009KT 9999 NCD 12/07 Q1022=
EGOM 301850Z AUTO 02012KT 9999 NCD 14/08 Q1021=
EGOM 301750Z AUTO 02016KT 9999 NCD 14/08 Q1021=
EGOM 301650Z AUTO 01014KT 9999 SCT015/// 15/09 Q1021=
EGOM 301550Z AUTO 03012KT 9999 BKN012/// 14/10 Q1021=
EGOM 301450Z AUTO 02013KT 9999 BKN012/// 14/10 Q1021=
EGOM 301350Z AUTO 02012KT 9999 BKN014/// 14/10 Q1021=
EGOM 301250Z AUTO 01011KT 9999 OVC014/// 13/09 Q1021=
EGOM 301150Z AUTO 01009KT 9999 BKN015/// 13/09 Q1021=
EGOM 301050Z AUTO 03008KT 9999 BKN013/// 14/09 Q1020=
EGOM 300950Z AUTO 04009KT 9999 BKN011/// 13/09 Q1020=
EGOM 300850Z AUTO 04009KT 9999 BKN010/// 12/09 Q1020=
EGOM 300750Z AUTO 02012KT 9999 OVC006/// 10/08 Q1020=
EGOM 300650Z AUTO 05009KT 9999 OVC001/// 08/08 Q1020=